Capitol Logistics 2180

Operating for AJT



TJSJ
Luis Munoz Marin International Airport
San Juan, PR
KEWR
Newark Liberty International Airport
Newark, US

Route Details

Aircraft Information
Group: Boeing Common
Types: B752,B762,B763
Route Data
Demand: L
Distance: 1402nm
Duration: 3h 45m
Recm'd Route: ACONY3 PALDE DONQU LUCTI L454 OKONU YAALE Y497 MOUGH Y497 SUBBS CYN GXU RBV METRO
Origin Wx: TJSJ 241956Z 06014KT 10SM FEW032CB SCT065 BKN080 28/23 A2997 RMK AO2 SLP148 CB S-W MOV E VCSH S-SW T02830233
Dest. Wx: KEWR 242051Z VRB04KT 10SM FEW045 BKN090 BKN250 19/06 A3029 RMK AO2 SLP255 T01940056 58005
Notes:

Financial History
Total Freight: 81,621lbs
Average Load: 40,811lbs/flt
Fuel Used: 77,569lbs
Avg. Fuel Used: 38,785lbs/flt
Fuel Expense: $29,865
Avg. Fuel Expense: $14,933
Avg. Fuel Cost: $0.38/lbs
Total Gross Income: $181,141
Pilot Pay: $478
Total Expenses: $35,519
Total Revenue: $113,777
Average Revenue: $90,570.74